LTAV

Sivrihisar Airport

Sivrihisar, Turkey
TAF LTAV 230440Z 2306/2315 VRB02KT 8000 SCT035 SCT100
Issued Valid From Valid To
Jan-23 @ 04:40 UTC
(3 hours ago)
Jan-23 @ 06:00 UTC
(2 hours ago)
Jan-23 @ 15:00 UTC
(in 7 hours)
Jan-23 @ 06:00 to Jan-23 @ 15:00
TAF LTAV 230440Z 2306/2315 VRB02KT 8000 SCT035 SCT100
Wind Visibility Clouds
Variable at 2 knots 7,998 meters
  • Scattered at 3,500' AGL
  • Scattered at 10,000' AGL
TAF LTAV 230440Z 2306/2315 VRB02KT 8000 SCT035 SCT100
Issued Jan-23 @ 04:40 UTC
(3 hours ago)
Valid From Jan-23 @ 06:00 UTC
(2 hours ago)
Valid To Jan-23 @ 15:00 UTC
(in 7 hours)
Jan-23 @ 06:00 - Jan-23 @ 15:00
Wind Visibility
Variable at 2 knots 7,998 meters
Clouds
  • Scattered at 3,500' AGL
  • Scattered at 10,000' AGL